Velkommen til

Stord Flyklubb

Om oss

Historien til Stord Flyklubb

Klubbens aner strekker seg tilbake til 1969 med sjøfly. Siden har vi sett vanlige motorfly og glidefly, men det er sportsfly som er hovedfokuset i dag

"Me har gjort det som menneskja har drøymd om frå gamalt av, det dei misunner fuglane, det vil seia, me har floge"

Salman Rushdie

Bli pilot

Alle kan lære å fly!

Ta en prøvetur hos oss og se hvor moro det er! Prøveturen gir deg en mulighet til å se om dette er noe du har lyst til å gå videre med.

Teorien tas av de fleste som hjemmeundervisning. Nytt læremateriell gjør opplæringen både enklere og mer strømlinjeformet.

Praksis kan påbegynnes mens man tar teorien, men teorien må være bestått før man kan fly solo. 

METAR Haugesund
ENHD 251120Z AUTO 10004KT 9999 NCD M02/M05 Q1001 ENHD 251050Z AUTO 09004KT 9999 NCD M02/M05 Q1001 ENHD 251020Z 09003KT CAVOK M02/M06 Q1001 ENHD 250850Z 09005KT CAVOK M06/M08 Q1000 TAF ENHD 251100Z 2512/2519 03005KT CAVOK
METAR Flesland
ENBR 251120Z 03004KT CAVOK M01/M05 Q1001 NOSIG RMK WIND 1200FT 36009KT ENBR 251050Z 04003KT CAVOK M02/M05 Q1001 NOSIG RMK WIND 1200FT 01008KT ENBR 251020Z 01003KT CAVOK M03/M05 Q1001 NOSIG RMK WIND 1200FT 36008KT ENBR 250950Z 04004KT CAVOK M03/M05 Q1001 NOSIG RMK WIND 1200FT 01008KT ENBR 250920Z 07003KT CAVOK M04/M06 Q1000 NOSIG RMK WIND 1200FT 03007KT ENBR 250850Z 04004KT CAVOK M05/M06 Q1000 NOSIG RMK WIND 1200FT 36008KT ENBR 2506/2606 12005KT 9999 FEW015 TEMPO 2603/2606 2000 SHSN VV008